createdAt,value
2018-02-21T00:00:47.047Z,95.90
2018-02-21T00:01:47.043Z,96.90
2018-02-21T00:02:47.053Z,98.50
2018-02-21T00:03:47.057Z,95.70
2018-02-21T00:04:47.053Z,96.00
2018-02-21T00:05:47.048Z,97.10
2018-02-21T00:06:47.052Z,91.20
2018-02-21T00:07:47.048Z,98.90
2018-02-21T00:08:48.006Z,95.40
2018-02-21T00:09:47.052Z,92.20
2018-02-21T00:10:47.061Z,95.90
2018-02-21T00:11:47.057Z,95.40
2018-02-21T00:12:47.053Z,99.30
2018-02-21T00:13:47.056Z,98.70
2018-02-21T00:14:47.053Z,100.00
2018-02-21T00:15:47.055Z,97.10
2018-02-21T00:16:47.053Z,95.40
2018-02-21T00:17:47.057Z,99.30
2018-02-21T00:18:47.059Z,101.50
2018-02-21T00:19:47.057Z,102.00
2018-02-21T00:20:47.052Z,98.60
2018-02-21T00:21:47.056Z,97.50
2018-02-21T00:22:47.057Z,98.80
2018-02-21T00:23:47.058Z,94.20
2018-02-21T00:24:47.057Z,97.10
2018-02-21T00:25:47.077Z,99.80
2018-02-21T00:26:47.062Z,95.00
2018-02-21T00:27:47.059Z,98.40
2018-02-21T00:28:47.058Z,99.60
2018-02-21T00:29:47.056Z,101.90
2018-02-21T00:30:47.061Z,99.20
2018-02-21T00:31:47.061Z,98.50
2018-02-21T00:32:47.062Z,104.20
2018-02-21T00:33:47.071Z,99.00
2018-02-21T00:34:47.060Z,98.70
2018-02-21T00:35:47.060Z,104.00
2018-02-21T00:36:47.067Z,99.20
2018-02-21T00:37:47.060Z,101.00
2018-02-21T00:38:47.062Z,105.80
2018-02-21T00:39:47.082Z,103.00
2018-02-21T00:40:47.072Z,103.00
2018-02-21T00:41:47.061Z,102.20
2018-02-21T00:42:47.058Z,104.50
2018-02-21T00:43:47.076Z,108.80
2018-02-21T00:44:47.062Z,103.70
2018-02-21T00:45:47.066Z,101.70
2018-02-21T00:46:47.066Z,105.70
2018-02-21T00:47:47.063Z,101.50
2018-02-21T00:48:47.064Z,101.30
2018-02-21T00:49:47.066Z,99.60
2018-02-21T00:50:47.063Z,102.20
2018-02-21T00:51:47.058Z,98.10
2018-02-21T00:52:47.068Z,102.70
2018-02-21T00:53:47.072Z,98.30
2018-02-21T00:54:47.065Z,102.40
2018-02-21T00:55:47.066Z,102.20
2018-02-21T00:56:47.073Z,105.40
2018-02-21T00:57:47.068Z,103.00
2018-02-21T00:58:47.063Z,105.40
2018-02-21T00:59:47.063Z,103.10
2018-02-21T01:00:47.066Z,105.30
2018-02-21T01:01:47.067Z,100.80
2018-02-21T01:02:47.064Z,102.70
2018-02-21T01:03:47.068Z,102.10
2018-02-21T01:04:47.076Z,107.60
2018-02-21T01:05:47.066Z,104.80
2018-02-21T01:06:47.071Z,103.80
2018-02-21T01:07:47.087Z,105.50
2018-02-21T01:08:47.066Z,103.00
2018-02-21T01:10:40.000Z,108.30
2018-02-21T01:11:39.970Z,103.90
2018-02-21T01:13:32.946Z,102.50
2018-02-21T01:14:32.925Z,107.10
2018-02-21T01:16:25.888Z,109.10
2018-02-21T01:17:25.882Z,110.80
2018-02-21T01:19:18.864Z,107.80
2018-02-21T01:20:18.838Z,108.00
2018-02-21T01:22:11.821Z,107.70
2018-02-21T01:23:11.793Z,106.90
2018-02-21T01:25:04.763Z,103.60
2018-02-21T01:26:04.752Z,102.10
2018-02-21T01:27:57.735Z,107.30
2018-02-21T01:28:57.713Z,107.30
2018-02-21T01:30:50.675Z,104.00
2018-02-21T01:31:50.675Z,110.40
2018-02-21T01:33:43.685Z,109.60
2018-02-21T01:34:43.629Z,108.10
2018-02-21T01:35:43.641Z,106.90
2018-02-21T01:36:43.625Z,110.70
2018-02-21T01:37:43.626Z,114.90
2018-02-21T01:38:43.627Z,105.20
2018-02-21T01:39:43.629Z,110.30
2018-02-21T01:40:43.624Z,110.00
2018-02-21T01:41:43.629Z,108.40
2018-02-21T01:42:43.625Z,108.30
2018-02-21T01:43:43.631Z,109.70
2018-02-21T01:44:43.629Z,109.00
2018-02-21T01:45:43.627Z,104.20
2018-02-21T01:46:43.626Z,109.80
2018-02-21T01:47:43.630Z,108.40
2018-02-21T01:48:43.631Z,112.80
2018-02-21T01:49:43.629Z,108.90
2018-02-21T01:50:43.627Z,110.60
2018-02-21T01:51:43.639Z,108.00
2018-02-21T01:52:43.634Z,113.00
2018-02-21T01:53:43.627Z,111.50
2018-02-21T01:54:43.631Z,112.50
2018-02-21T01:55:43.632Z,111.20
2018-02-21T01:56:43.629Z,112.70
2018-02-21T01:57:43.626Z,110.00
2018-02-21T01:58:43.627Z,111.60
2018-02-21T01:59:43.633Z,112.10
2018-02-21T02:00:43.628Z,111.20
2018-02-21T02:01:43.628Z,107.90
2018-02-21T02:02:43.630Z,107.80
2018-02-21T02:03:43.628Z,108.50
2018-02-21T02:04:43.635Z,109.40
2018-02-21T02:05:43.631Z,110.10
2018-02-21T02:06:43.629Z,106.90
2018-02-21T02:07:43.632Z,108.00
2018-02-21T02:08:43.634Z,109.10
2018-02-21T02:09:43.634Z,109.90
2018-02-21T02:10:43.638Z,109.90
2018-02-21T02:11:43.627Z,111.30
2018-02-21T02:12:43.631Z,107.50
2018-02-21T02:13:43.636Z,113.50
2018-02-21T02:14:43.634Z,110.90
2018-02-21T02:15:43.635Z,113.70
2018-02-21T02:16:43.633Z,111.90
2018-02-21T02:17:43.627Z,116.90
2018-02-21T02:18:43.630Z,107.80
2018-02-21T02:19:43.639Z,113.40
2018-02-21T02:20:43.633Z,113.30
2018-02-21T02:21:43.629Z,115.60
2018-02-21T02:22:43.632Z,114.60
2018-02-21T02:23:43.633Z,108.70
2018-02-21T02:24:43.643Z,111.20
2018-02-21T02:25:43.631Z,109.70
2018-02-21T02:26:43.628Z,118.10
2018-02-21T02:27:43.638Z,108.50
2018-02-21T02:28:43.634Z,117.10
2018-02-21T02:29:43.628Z,113.70
2018-02-21T02:30:43.630Z,114.70
2018-02-21T02:31:43.635Z,118.70
2018-02-21T02:32:43.631Z,110.50
2018-02-21T02:33:43.634Z,111.90
2018-02-21T02:34:43.626Z,115.40
2018-02-21T02:35:43.633Z,114.30
2018-02-21T02:36:43.630Z,116.80
2018-02-21T02:37:43.634Z,114.30
2018-02-21T02:38:43.637Z,112.30
2018-02-21T02:39:43.634Z,112.00
2018-02-21T02:40:43.635Z,114.40
2018-02-21T02:41:43.636Z,114.90
2018-02-21T02:42:43.633Z,114.50
2018-02-21T02:43:43.633Z,115.50
2018-02-21T02:44:43.634Z,115.30
2018-02-21T02:45:43.633Z,118.00
2018-02-21T02:46:43.628Z,118.60
2018-02-21T02:47:43.638Z,116.30
2018-02-21T02:48:43.641Z,115.40
2018-02-21T02:49:43.629Z,118.20
2018-02-21T02:50:43.635Z,117.80
2018-02-21T02:51:43.632Z,120.10
2018-02-21T02:52:43.636Z,114.90
2018-02-21T02:53:43.653Z,115.50
2018-02-21T02:54:46.054Z,116.10
2018-02-21T02:55:43.632Z,115.30
2018-02-21T02:56:43.637Z,112.70
2018-02-21T02:57:43.641Z,117.30
2018-02-21T02:58:43.639Z,117.70
2018-02-21T02:59:43.644Z,114.80
2018-02-21T03:00:43.640Z,112.80
2018-02-21T03:01:43.635Z,116.70
2018-02-21T03:02:43.637Z,113.90
2018-02-21T03:03:43.640Z,122.70
2018-02-21T03:04:43.637Z,115.30
2018-02-21T03:05:43.635Z,118.20
2018-02-21T03:06:43.635Z,115.80
2018-02-21T03:07:43.640Z,116.40
2018-02-21T03:08:43.632Z,113.50
2018-02-21T03:09:43.639Z,115.20
2018-02-21T03:10:43.636Z,114.70
2018-02-21T03:11:43.642Z,118.00
2018-02-21T03:12:43.638Z,120.40
2018-02-21T03:13:43.640Z,117.00
2018-02-21T03:14:43.636Z,116.00
2018-02-21T03:15:43.635Z,112.40
2018-02-21T03:16:43.639Z,113.50
2018-02-21T03:17:43.633Z,122.50
2018-02-21T03:18:43.638Z,118.60
2018-02-21T03:19:43.646Z,112.20
2018-02-21T03:20:43.640Z,115.30
2018-02-21T03:21:43.633Z,111.60
2018-02-21T03:22:43.639Z,114.70
2018-02-21T03:23:43.634Z,115.50
2018-02-21T03:24:43.645Z,110.10
2018-02-21T03:25:43.634Z,113.70
2018-02-21T03:26:43.659Z,116.20
2018-02-21T03:27:43.640Z,114.00
2018-02-21T03:28:43.636Z,110.00
2018-02-21T03:29:43.641Z,113.40
2018-02-21T03:30:43.638Z,115.00
2018-02-21T03:31:43.640Z,113.40
2018-02-21T03:32:43.641Z,110.90
2018-02-21T03:33:43.641Z,115.40
2018-02-21T03:34:43.639Z,113.50
2018-02-21T03:35:43.642Z,110.60
2018-02-21T03:36:43.648Z,111.70
2018-02-21T03:37:43.635Z,110.30
2018-02-21T03:38:43.636Z,112.20
2018-02-21T03:39:43.643Z,112.10
2018-02-21T03:40:43.644Z,105.90
2018-02-21T03:41:43.635Z,110.20
2018-02-21T03:42:43.670Z,108.10
2018-02-21T03:43:43.642Z,108.30
2018-02-21T03:44:43.640Z,108.00
2018-02-21T03:45:43.638Z,109.60
2018-02-21T03:46:43.647Z,108.30
2018-02-21T03:47:43.636Z,109.60
2018-02-21T03:48:43.645Z,106.50
2018-02-21T03:49:43.638Z,111.40
2018-02-21T03:50:43.642Z,107.10
2018-02-21T03:51:43.642Z,107.20
2018-02-21T03:52:43.644Z,109.70
2018-02-21T03:53:43.641Z,110.70
2018-02-21T03:54:43.645Z,109.30
2018-02-21T03:55:43.637Z,109.70
2018-02-21T03:56:43.640Z,105.60
2018-02-21T03:57:43.642Z,103.90
2018-02-21T03:58:43.648Z,105.40
2018-02-21T03:59:43.660Z,104.20
2018-02-21T04:00:43.729Z,105.40
2018-02-21T04:01:43.641Z,106.90
2018-02-21T04:02:43.656Z,109.60
2018-02-21T04:03:43.643Z,103.90
2018-02-21T04:04:43.646Z,106.70
2018-02-21T04:05:43.648Z,106.80
2018-02-21T04:06:43.641Z,104.40
2018-02-21T04:07:43.641Z,103.60
2018-02-21T04:08:43.644Z,102.50
2018-02-21T04:09:43.642Z,105.00
2018-02-21T04:10:43.644Z,109.10
2018-02-21T04:11:43.643Z,101.70
2018-02-21T04:12:43.642Z,112.00
2018-02-21T04:13:43.642Z,105.10
2018-02-21T04:14:43.642Z,109.60
2018-02-21T04:15:43.647Z,110.90
2018-02-21T04:16:43.644Z,109.80
2018-02-21T04:17:43.639Z,106.80
2018-02-21T04:18:43.644Z,107.10
2018-02-21T04:19:43.648Z,107.10
2018-02-21T04:20:43.654Z,104.40
2018-02-21T04:21:43.653Z,100.40
2018-02-21T04:22:43.653Z,105.70
2018-02-21T04:23:43.686Z,101.20
2018-02-21T04:24:43.648Z,102.60
2018-02-21T04:25:45.596Z,107.20
2018-02-21T04:26:44.323Z,106.40
2018-02-21T04:27:44.803Z,105.50
2018-02-21T04:28:43.646Z,109.80
2018-02-21T04:29:43.650Z,106.40
2018-02-21T04:30:43.648Z,106.40
2018-02-21T04:31:43.641Z,102.80
2018-02-21T04:32:43.647Z,105.20
2018-02-21T04:33:43.644Z,105.80
2018-02-21T04:34:43.644Z,107.70
2018-02-21T04:35:43.645Z,111.70
2018-02-21T04:36:43.643Z,102.80
2018-02-21T04:37:43.641Z,106.70
2018-02-21T04:38:43.645Z,100.30
2018-02-21T04:39:43.647Z,131.50
2018-02-21T04:40:43.659Z,102.20
2018-02-21T04:41:43.642Z,104.30
2018-02-21T04:42:43.645Z,103.40
2018-02-21T04:43:43.651Z,103.00
2018-02-21T04:44:43.662Z,108.40
2018-02-21T04:45:43.648Z,102.60
2018-02-21T04:46:43.654Z,104.00
2018-02-21T04:47:43.647Z,106.40
2018-02-21T04:48:43.649Z,109.20
2018-02-21T04:49:43.643Z,105.60
2018-02-21T04:50:43.664Z,103.90
2018-02-21T04:51:43.642Z,104.30
2018-02-21T04:52:43.638Z,99.40
2018-02-21T04:53:43.643Z,103.60
2018-02-21T04:54:43.658Z,105.20
2018-02-21T04:55:43.649Z,101.90
2018-02-21T04:56:43.639Z,102.70
2018-02-21T04:57:43.644Z,104.30
2018-02-21T04:58:43.649Z,99.00
2018-02-21T04:59:43.645Z,104.20
2018-02-21T05:00:43.641Z,104.00
2018-02-21T05:01:43.643Z,102.90
2018-02-21T05:02:43.659Z,106.00
2018-02-21T05:03:43.648Z,102.40
2018-02-21T05:04:43.643Z,101.90
2018-02-21T05:05:43.646Z,101.90
2018-02-21T05:06:43.641Z,102.90
2018-02-21T05:07:43.647Z,99.20
2018-02-21T05:08:43.642Z,104.50
2018-02-21T05:09:43.651Z,101.10
2018-02-21T05:10:43.645Z,101.40
2018-02-21T05:11:43.649Z,101.50
2018-02-21T05:12:43.642Z,104.20
2018-02-21T05:13:43.639Z,98.10
2018-02-21T05:14:43.643Z,102.00
2018-02-21T05:15:43.639Z,103.90
2018-02-21T05:16:43.649Z,99.60
2018-02-21T05:17:43.646Z,103.40
2018-02-21T05:18:43.649Z,99.80
2018-02-21T05:19:43.648Z,100.70
2018-02-21T05:20:43.642Z,103.30
2018-02-21T05:21:43.643Z,100.90
2018-02-21T05:22:43.643Z,103.20
2018-02-21T05:23:43.639Z,100.00
2018-02-21T05:24:43.661Z,96.80
2018-02-21T05:25:43.640Z,103.60
2018-02-21T05:26:43.649Z,104.60
2018-02-21T05:27:43.638Z,99.70
2018-02-21T05:28:43.644Z,101.90
2018-02-21T05:29:43.674Z,99.40
2018-02-21T05:30:43.649Z,104.20
2018-02-21T05:31:43.649Z,104.90
2018-02-21T05:32:43.647Z,101.20
2018-02-21T05:33:43.641Z,100.10
2018-02-21T05:34:43.636Z,100.80
2018-02-21T05:35:43.644Z,103.20
2018-02-21T05:36:43.685Z,97.70
2018-02-21T05:37:43.648Z,100.40
2018-02-21T05:38:43.644Z,102.70
2018-02-21T05:39:43.645Z,100.10
2018-02-21T05:40:43.637Z,96.60
2018-02-21T05:41:43.644Z,101.40
2018-02-21T05:42:43.635Z,101.30
2018-02-21T05:43:43.639Z,98.10
2018-02-21T05:44:43.645Z,97.20
2018-02-21T05:45:43.639Z,98.60
2018-02-21T05:46:43.635Z,99.00
2018-02-21T05:47:43.640Z,99.50
2018-02-21T05:48:43.640Z,101.90
2018-02-21T05:49:43.636Z,102.30
2018-02-21T05:50:43.635Z,101.90
2018-02-21T05:51:43.637Z,105.90
2018-02-21T05:52:43.640Z,103.80
2018-02-21T05:53:43.630Z,100.40
2018-02-21T05:54:43.637Z,102.50
2018-02-21T05:55:43.637Z,100.80
2018-02-21T05:56:43.639Z,98.50
2018-02-21T05:57:43.638Z,98.40
2018-02-21T05:58:43.726Z,101.70
2018-02-21T05:59:43.637Z,102.90
2018-02-21T06:00:43.641Z,98.10
2018-02-21T06:01:43.650Z,100.60
2018-02-21T06:02:43.637Z,99.00
2018-02-21T06:03:43.635Z,100.60
2018-02-21T06:04:43.633Z,101.90
2018-02-21T06:05:43.637Z,98.10
2018-02-21T06:06:43.640Z,94.60
2018-02-21T06:07:43.659Z,100.80
2018-02-21T06:08:43.631Z,102.60
2018-02-21T06:09:43.661Z,103.80
2018-02-21T06:10:43.639Z,100.90
2018-02-21T06:11:43.631Z,99.10
2018-02-21T06:12:43.628Z,103.20
2018-02-21T06:13:43.631Z,103.00
2018-02-21T06:14:43.631Z,97.90
2018-02-21T06:15:43.628Z,104.70
2018-02-21T06:16:43.631Z,99.40
2018-02-21T06:17:43.626Z,101.20
2018-02-21T06:18:43.641Z,107.60
2018-02-21T06:19:43.629Z,104.00
2018-02-21T06:20:43.678Z,110.90
2018-02-21T06:21:43.632Z,100.50
2018-02-21T06:22:43.644Z,100.70
2018-02-21T06:23:43.628Z,103.30
2018-02-21T06:24:43.631Z,102.60
2018-02-21T06:25:43.636Z,102.70
2018-02-21T06:26:43.673Z,103.90
2018-02-21T06:27:43.642Z,103.60
2018-02-21T06:29:36.589Z,100.10
2018-02-21T06:30:36.569Z,99.40
2018-02-21T06:32:29.530Z,104.60
2018-02-21T06:33:29.522Z,100.80
2018-02-21T06:35:22.507Z,101.20
2018-02-21T06:36:22.483Z,98.20
2018-02-21T06:38:15.443Z,106.40
2018-02-21T06:39:15.442Z,98.30
2018-02-21T06:41:08.418Z,99.80
2018-02-21T06:42:08.399Z,103.90
2018-02-21T06:44:01.381Z,100.00
2018-02-21T06:45:01.351Z,110.70
2018-02-21T06:46:54.317Z,100.20
2018-02-21T06:47:54.313Z,97.80
2018-02-21T06:49:47.298Z,99.40
2018-02-21T06:50:47.276Z,99.90
2018-02-21T06:52:40.235Z,95.80
2018-02-21T06:53:40.223Z,97.30
2018-02-21T06:55:33.212Z,96.90
2018-02-21T06:56:33.183Z,98.30
2018-02-21T06:58:26.637Z,94.30
2018-02-21T06:59:26.141Z,104.90
2018-02-21T07:01:19.124Z,97.20
2018-02-21T07:02:19.093Z,102.30
2018-02-21T07:04:12.060Z,98.50
2018-02-21T07:05:12.056Z,104.50
2018-02-21T07:07:05.042Z,97.50
2018-02-21T07:08:05.009Z,98.90
2018-02-21T07:09:57.991Z,96.80
2018-02-21T07:10:57.970Z,94.30
2018-02-21T07:12:50.934Z,95.20
2018-02-21T07:13:50.925Z,96.90
2018-02-21T07:15:43.905Z,93.10
2018-02-21T07:16:43.884Z,97.10
2018-02-21T07:18:36.846Z,95.40
2018-02-21T07:19:36.842Z,93.40
2018-02-21T07:21:29.824Z,91.00
2018-02-21T07:22:29.799Z,90.40
2018-02-21T07:24:22.761Z,92.70
2018-02-21T07:25:22.759Z,91.70
2018-02-21T07:27:15.737Z,91.90
2018-02-21T07:28:15.708Z,95.20
2018-02-21T07:30:08.704Z,91.50
2018-02-21T07:31:08.667Z,90.80
2018-02-21T07:33:01.623Z,87.20
2018-02-21T07:34:01.624Z,85.80
2018-02-21T07:35:54.606Z,89.30
2018-02-21T07:36:54.580Z,87.10
2018-02-21T07:38:47.546Z,91.90
2018-02-21T07:39:47.540Z,85.30
2018-02-21T07:41:40.520Z,90.00
2018-02-21T07:42:40.550Z,89.50
2018-02-21T07:44:33.458Z,84.50
2018-02-21T07:45:33.453Z,91.70
2018-02-21T07:47:26.441Z,83.60
2018-02-21T07:48:26.411Z,85.40
2018-02-21T07:50:19.387Z,87.60
2018-02-21T07:51:19.372Z,83.50
2018-02-21T07:53:12.353Z,86.50
2018-02-21T07:54:12.327Z,86.10
2018-02-21T07:56:05.309Z,80.40
2018-02-21T07:57:05.284Z,85.80
2018-02-21T07:58:58.240Z,83.90
2018-02-21T07:59:58.243Z,85.40
2018-02-21T08:01:51.220Z,84.00
2018-02-21T08:02:51.199Z,86.30
2018-02-21T08:04:44.162Z,88.00
2018-02-21T08:05:44.158Z,78.20
2018-02-21T08:07:37.635Z,86.20
2018-02-21T08:08:37.115Z,78.00
2018-02-21T08:10:30.075Z,77.00
2018-02-21T08:11:30.072Z,77.20
2018-02-21T08:13:23.052Z,77.20
2018-02-21T08:14:23.028Z,72.90
2018-02-21T08:16:16.057Z,66.80
2018-02-21T08:17:15.987Z,65.20
2018-02-21T08:18:15.988Z,64.00
2018-02-21T08:19:15.994Z,63.30
2018-02-21T08:20:16.004Z,63.60
2018-02-21T08:21:16.003Z,62.10
2018-02-21T08:22:16.006Z,60.90
2018-02-21T08:23:16.012Z,59.80
2018-02-21T08:24:16.018Z,61.90
2018-02-21T08:25:16.020Z,60.10
2018-02-21T08:26:16.029Z,65.10
2018-02-21T08:27:16.029Z,58.70
2018-02-21T08:28:16.141Z,54.90
2018-02-21T08:29:16.040Z,59.50
2018-02-21T08:30:16.046Z,57.10
2018-02-21T08:31:16.055Z,55.20
2018-02-21T08:32:16.077Z,59.90
2018-02-21T08:33:16.131Z,56.90
2018-02-21T08:34:16.121Z,56.40
2018-02-21T08:35:16.139Z,56.80
2018-02-21T08:36:16.081Z,56.40
2018-02-21T08:37:16.143Z,54.40
2018-02-21T08:38:16.101Z,54.90
2018-02-21T08:39:16.162Z,55.90
2018-02-21T08:40:16.143Z,52.90
2018-02-21T08:41:16.168Z,52.70
2018-02-21T08:42:16.180Z,52.20
2018-02-21T08:43:16.181Z,56.80
2018-02-21T08:44:16.182Z,52.20
2018-02-21T08:45:16.191Z,53.30
2018-02-21T08:46:16.208Z,51.10
2018-02-21T08:47:16.202Z,50.50
2018-02-21T08:48:16.227Z,49.10
2018-02-21T08:49:16.226Z,49.10
2018-02-21T08:50:16.239Z,50.80
2018-02-21T08:51:16.275Z,50.40
2018-02-21T08:52:16.281Z,46.10
2018-02-21T08:53:16.300Z,46.40
2018-02-21T08:54:16.285Z,45.40
2018-02-21T08:55:16.239Z,46.10
2018-02-21T08:56:16.253Z,46.00
2018-02-21T08:57:16.262Z,46.20
2018-02-21T08:58:16.266Z,46.50
2018-02-21T08:59:16.280Z,47.50
2018-02-21T09:00:16.292Z,45.90
2018-02-21T09:01:16.304Z,46.10
2018-02-21T09:02:16.311Z,47.30
2018-02-21T09:03:16.320Z,45.40
2018-02-21T09:04:16.335Z,44.10
2018-02-21T09:05:16.347Z,43.60
2018-02-21T09:06:16.349Z,46.80
2018-02-21T09:07:16.361Z,45.10
2018-02-21T09:08:16.377Z,45.20
2018-02-21T09:09:16.385Z,44.40
2018-02-21T09:10:16.396Z,45.60
2018-02-21T09:11:16.406Z,43.50
2018-02-21T09:12:16.421Z,41.80
2018-02-21T09:13:16.428Z,46.20
2018-02-21T09:14:16.460Z,46.40
2018-02-21T09:15:16.456Z,43.40
2018-02-21T09:16:16.467Z,41.70
2018-02-21T09:17:16.533Z,42.70
2018-02-21T09:18:16.491Z,43.30
2018-02-21T09:19:16.729Z,41.50
2018-02-21T09:20:16.507Z,41.90
2018-02-21T09:21:16.525Z,42.30
2018-02-21T09:22:16.531Z,43.70
2018-02-21T09:23:16.605Z,42.50
2018-02-21T09:24:16.557Z,43.00
2018-02-21T09:25:16.571Z,43.00
2018-02-21T09:26:16.579Z,42.30
2018-02-21T09:27:16.589Z,39.60
2018-02-21T09:28:16.604Z,41.10
2018-02-21T09:29:16.616Z,42.10
2018-02-21T09:30:16.621Z,44.70
2018-02-21T09:31:16.633Z,43.60
2018-02-21T09:32:16.651Z,47.00
2018-02-21T09:33:16.664Z,44.70
2018-02-21T09:34:16.670Z,40.50
2018-02-21T09:35:16.679Z,40.70
2018-02-21T09:36:16.695Z,41.70
2018-02-21T09:37:16.701Z,41.40
2018-02-21T09:38:16.714Z,52.80
2018-02-21T09:39:16.732Z,40.30
2018-02-21T09:40:16.738Z,42.00
2018-02-21T09:41:16.751Z,41.30
2018-02-21T09:42:16.761Z,52.40
2018-02-21T09:43:16.780Z,60.40
2018-02-21T09:44:16.788Z,69.90
2018-02-21T09:45:16.800Z,39.60
2018-02-21T09:46:16.808Z,40.70
2018-02-21T09:47:16.827Z,49.00
2018-02-21T09:48:16.860Z,52.20
2018-02-21T09:49:16.847Z,51.20
2018-02-21T09:50:16.857Z,44.50
2018-02-21T09:51:16.872Z,49.00
2018-02-21T09:52:16.879Z,45.00
2018-02-21T09:53:16.890Z,48.40
2018-02-21T09:54:16.912Z,37.80
2018-02-21T09:55:16.918Z,38.90
2018-02-21T09:56:16.932Z,45.00
2018-02-21T09:57:16.943Z,41.20
2018-02-21T09:58:16.956Z,54.40
2018-02-21T09:59:16.963Z,38.30
2018-02-21T10:00:16.990Z,71.40
2018-02-21T10:01:16.993Z,38.10
2018-02-21T10:02:17.006Z,44.30
2018-02-21T10:03:17.012Z,49.00
2018-02-21T10:04:17.029Z,39.00
2018-02-21T10:05:17.039Z,47.40
2018-02-21T10:06:17.061Z,72.30
2018-02-21T10:07:17.063Z,37.70
2018-02-21T10:08:17.116Z,45.20
2018-02-21T10:09:17.089Z,41.60
2018-02-21T10:10:17.097Z,43.20
2018-02-21T10:11:17.109Z,41.80
2018-02-21T10:12:17.130Z,47.90
2018-02-21T10:13:17.136Z,40.50
2018-02-21T10:14:17.144Z,39.60
2018-02-21T10:15:17.163Z,50.70
2018-02-21T10:16:17.173Z,38.80
2018-02-21T10:17:17.184Z,38.20
2018-02-21T10:18:17.191Z,38.50
2018-02-21T10:19:17.223Z,40.10
2018-02-21T10:20:17.226Z,96.10
2018-02-21T10:21:17.229Z,43.90
2018-02-21T10:22:17.238Z,41.70
2018-02-21T10:23:17.248Z,67.90
2018-02-21T10:24:17.261Z,39.40
2018-02-21T10:25:17.273Z,88.70
2018-02-21T10:26:17.284Z,42.30
2018-02-21T10:27:17.297Z,39.90
2018-02-21T10:28:17.306Z,67.20
2018-02-21T10:29:17.319Z,62.50
2018-02-21T10:30:17.328Z,51.20
2018-02-21T10:31:17.337Z,43.70
2018-02-21T10:32:17.347Z,46.50
2018-02-21T10:33:17.360Z,37.60
2018-02-21T10:34:17.377Z,67.90
2018-02-21T10:35:17.391Z,54.10
2018-02-21T10:36:17.393Z,45.50
2018-02-21T10:37:17.403Z,75.20
2018-02-21T10:38:17.432Z,51.20
2018-02-21T10:39:17.425Z,38.80
2018-02-21T10:40:17.436Z,41.30
2018-02-21T10:41:17.449Z,76.80
2018-02-21T10:42:17.459Z,38.60
2018-02-21T10:43:17.474Z,53.50
2018-02-21T10:44:17.483Z,41.80
2018-02-21T10:45:17.491Z,41.60
2018-02-21T10:46:17.502Z,40.80
2018-02-21T10:47:17.516Z,41.80
2018-02-21T10:48:17.522Z,38.90
2018-02-21T10:49:17.534Z,37.80
2018-02-21T10:50:17.597Z,36.60
2018-02-21T10:51:17.599Z,42.10
2018-02-21T10:52:17.609Z,45.40
2018-02-21T10:53:17.651Z,33.50
2018-02-21T10:54:17.637Z,36.80
2018-02-21T10:55:17.609Z,35.70
2018-02-21T10:56:17.656Z,42.30
2018-02-21T10:57:17.623Z,37.80
2018-02-21T10:58:17.657Z,33.40
2018-02-21T10:59:17.685Z,34.00
2018-02-21T11:00:17.651Z,34.20
2018-02-21T11:01:17.658Z,37.10
2018-02-21T11:02:17.668Z,38.00
2018-02-21T11:03:18.572Z,39.20
2018-02-21T11:04:17.736Z,34.30
2018-02-21T11:05:17.790Z,35.90
2018-02-21T11:06:17.854Z,35.90
2018-02-21T11:07:17.786Z,33.70
2018-02-21T11:08:17.840Z,34.70
2018-02-21T11:09:17.849Z,36.10
2018-02-21T11:10:17.889Z,40.60
2018-02-21T11:11:17.860Z,34.80
2018-02-21T11:12:17.859Z,39.20
2018-02-21T11:13:17.885Z,47.90
2018-02-21T11:14:17.845Z,53.30
2018-02-21T11:15:17.864Z,36.30
2018-02-21T11:16:17.850Z,31.90
2018-02-21T11:17:17.871Z,31.80
2018-02-21T11:18:17.902Z,31.80
2018-02-21T11:19:17.821Z,35.60
2018-02-21T11:20:18.544Z,31.30
2018-02-21T11:21:17.833Z,31.20
2018-02-21T11:22:17.842Z,32.10
2018-02-21T11:23:17.855Z,33.30
2018-02-21T11:24:17.859Z,33.50
2018-02-21T11:25:17.864Z,40.00
2018-02-21T11:26:17.876Z,31.60
2018-02-21T11:27:17.883Z,32.10
2018-02-21T11:28:17.894Z,31.70
2018-02-21T11:29:17.895Z,35.30
2018-02-21T11:30:17.950Z,38.10
2018-02-21T11:31:17.913Z,36.70
2018-02-21T11:32:17.923Z,33.40
2018-02-21T11:33:17.927Z,33.70
2018-02-21T11:34:17.936Z,32.70
2018-02-21T11:35:17.943Z,50.30
2018-02-21T11:36:17.954Z,39.50
2018-02-21T11:37:17.960Z,34.40
2018-02-21T11:38:17.971Z,31.50
2018-02-21T11:39:17.972Z,31.70
2018-02-21T11:40:17.991Z,34.50
2018-02-21T11:41:17.986Z,31.50
2018-02-21T11:42:17.995Z,32.30
2018-02-21T11:43:18.001Z,30.10
2018-02-21T11:44:18.012Z,29.20
2018-02-21T11:45:18.015Z,32.60
2018-02-21T11:46:18.020Z,28.30
2018-02-21T11:47:18.035Z,35.90
2018-02-21T11:48:18.039Z,32.70
2018-02-21T11:49:18.089Z,37.30
2018-02-21T11:50:18.043Z,32.50
2018-02-21T11:51:18.057Z,32.60
2018-02-21T11:52:18.061Z,31.70
2018-02-21T11:53:18.073Z,33.10
2018-02-21T11:54:18.075Z,31.20
2018-02-21T11:55:18.130Z,32.50
2018-02-21T11:56:18.095Z,33.40
2018-02-21T11:57:18.128Z,32.20
2018-02-21T11:58:18.107Z,32.50
2018-02-21T11:59:18.146Z,30.00
2018-02-21T12:00:18.109Z,31.50
2018-02-21T12:01:18.114Z,30.80
2018-02-21T12:02:18.125Z,32.50
2018-02-21T12:03:18.129Z,30.70
2018-02-21T12:04:18.137Z,35.00
2018-02-21T12:05:18.142Z,37.70
2018-02-21T12:06:18.147Z,31.30
2018-02-21T12:07:18.149Z,32.40
2018-02-21T12:08:18.158Z,30.90
2018-02-21T12:09:18.160Z,34.30
2018-02-21T12:10:18.173Z,38.80
2018-02-21T12:11:18.176Z,32.00
2018-02-21T12:12:18.218Z,31.00
2018-02-21T12:13:18.185Z,33.40
2018-02-21T12:14:18.189Z,34.60
2018-02-21T12:15:18.193Z,34.90
2018-02-21T12:16:18.207Z,33.20
2018-02-21T12:17:18.201Z,34.80
2018-02-21T12:18:18.208Z,36.10
2018-02-21T12:19:18.212Z,38.20
2018-02-21T12:20:18.219Z,36.90
2018-02-21T12:21:18.226Z,36.40
2018-02-21T12:22:18.231Z,36.00
2018-02-21T12:23:18.237Z,37.40
2018-02-21T12:24:18.238Z,33.50
2018-02-21T12:25:18.245Z,33.90
2018-02-21T12:26:18.252Z,37.00
2018-02-21T12:27:18.256Z,36.10
2018-02-21T12:28:18.263Z,39.60
2018-02-21T12:29:18.266Z,47.00
2018-02-21T12:30:18.270Z,40.90
2018-02-21T12:31:18.272Z,44.50
2018-02-21T12:32:18.277Z,36.20
2018-02-21T12:33:18.280Z,39.60
2018-02-21T12:34:18.291Z,46.60
2018-02-21T12:35:18.289Z,43.20
2018-02-21T12:36:18.301Z,36.10
2018-02-21T12:37:18.300Z,40.40
2018-02-21T12:38:18.308Z,35.80
2018-02-21T12:39:18.310Z,37.50
2018-02-21T12:40:18.320Z,33.50
2018-02-21T12:41:18.318Z,33.70
2018-02-21T12:42:18.325Z,32.90
2018-02-21T12:43:18.328Z,36.20
2018-02-21T12:44:18.332Z,36.80
2018-02-21T12:45:18.336Z,34.40
2018-02-21T12:46:18.346Z,34.60
2018-02-21T12:47:18.345Z,38.40
2018-02-21T12:48:18.356Z,35.10
2018-02-21T12:49:18.357Z,35.00
2018-02-21T12:50:18.374Z,35.30
2018-02-21T12:51:18.365Z,34.30
2018-02-21T12:52:19.074Z,37.40
2018-02-21T12:53:18.373Z,35.40
2018-02-21T12:54:18.377Z,37.30
2018-02-21T12:55:18.378Z,37.10
2018-02-21T12:56:18.385Z,38.50
2018-02-21T12:57:18.389Z,33.10
2018-02-21T12:58:18.388Z,32.10
2018-02-21T12:59:18.426Z,35.80
2018-02-21T13:00:18.404Z,34.00
2018-02-21T13:01:18.405Z,39.90
2018-02-21T13:02:18.405Z,32.40
2018-02-21T13:03:18.410Z,32.60
2018-02-21T13:04:18.417Z,34.50
2018-02-21T13:05:18.426Z,34.90
2018-02-21T13:06:18.422Z,33.30
2018-02-21T13:07:18.438Z,35.20
2018-02-21T13:08:18.435Z,37.10
2018-02-21T13:09:18.439Z,34.00
2018-02-21T13:10:18.436Z,33.50
2018-02-21T13:11:18.438Z,34.10
2018-02-21T13:12:18.446Z,35.80
2018-02-21T13:13:18.451Z,33.20
2018-02-21T13:14:18.450Z,35.10
2018-02-21T13:15:18.455Z,32.50
2018-02-21T13:16:18.462Z,32.60
2018-02-21T13:17:18.465Z,34.20
2018-02-21T13:18:18.497Z,34.40
2018-02-21T13:19:18.471Z,37.80
2018-02-21T13:20:18.477Z,39.90
2018-02-21T13:21:18.531Z,37.70
2018-02-21T13:22:18.542Z,35.90
2018-02-21T13:23:18.487Z,38.30